Time;durP1;ratioP1;P1;durP2;ratioP2;P2;SDS_P1;SDS_P2;PMS_P1;PMS_P2;Temp;Humidity;BMP_temperature;BMP_pressure;BME280_temperature;BME280_humidity;BME280_pressure;Samples;Min_cycle;Max_cycle;Signal;HPM_P1;HPM_P2
2021/12/10 00:01:34;;;;;;;0.63;0.63;;;1.70;99.90;;;;;;5244668;28;20044;-79
2021/12/10 00:04:07;;;;;;;0.43;0.43;;;1.80;99.90;;;;;;5256572;28;20471;-80
2021/12/10 00:06:47;;;;;;;0.55;0.55;;;1.70;99.90;;;;;;5242610;28;20024;-76
2021/12/10 00:09:24;;;;;;;0.57;0.57;;;1.60;99.90;;;;;;5264016;28;20016;-79
2021/12/10 00:12:06;;;;;;;0.75;0.75;;;1.40;99.90;;;;;;5265510;28;20039;-77
2021/12/10 00:14:41;;;;;;;0.73;0.73;;;1.30;99.90;;;;;;5264820;28;20034;-77
2021/12/10 00:17:14;;;;;;;0.52;0.52;;;1.30;99.90;;;;;;5261393;28;20078;-79
2021/12/10 00:19:57;;;;;;;0.50;0.50;;;1.30;99.90;;;;;;5254537;28;20178;-78
2021/12/10 00:22:46;;;;;;;0.50;0.50;;;1.30;99.90;;;;;;5259881;28;20248;-77
2021/12/10 00:25:24;;;;;;;1.58;1.48;;;1.40;99.90;;;;;;5251139;28;20036;-79
2021/12/10 00:27:56;;;;;;;0.60;0.60;;;1.40;99.90;;;;;;5253342;28;20043;-79
2021/12/10 00:30:44;;;;;;;0.40;0.40;;;1.50;99.90;;;;;;5245392;28;20364;-79
2021/12/10 00:33:21;;;;;;;0.50;0.50;;;1.40;99.90;;;;;;5239430;28;20360;-82
2021/12/10 00:35:57;;;;;;;0.80;0.80;;;1.30;99.90;;;;;;5246450;28;20098;-78
2021/12/10 00:38:28;;;;;;;0.47;0.47;;;1.30;99.90;;;;;;5263903;28;20040;-79
2021/12/10 00:41:02;;;;;;;0.50;0.50;;;1.40;99.90;;;;;;5264497;28;20098;-79
2021/12/10 00:43:35;;;;;;;0.40;0.40;;;1.40;99.90;;;;;;5263516;28;20020;-78
2021/12/10 00:46:09;;;;;;;0.47;0.47;;;1.30;99.90;;;;;;5263180;28;20320;-79
2021/12/10 00:48:43;;;;;;;0.40;0.40;;;1.20;99.90;;;;;;5262686;28;20305;-79
2021/12/10 00:51:17;;;;;;;0.50;0.50;;;1.10;99.90;;;;;;5264177;28;20337;-78
2021/12/10 00:53:48;;;;;;;0.55;0.55;;;1.20;99.90;;;;;;5246198;28;20032;-78
2021/12/10 00:56:21;;;;;;;0.30;0.30;;;1.30;99.90;;;;;;5263675;28;20264;-79
2021/12/10 00:58:52;;;;;;;0.60;0.60;;;1.30;99.90;;;;;;5246680;28;20364;-78
2021/12/10 01:01:29;;;;;;;0.50;0.50;;;1.40;99.90;;;;;;5243447;28;20041;-77
2021/12/10 01:04:07;;;;;;;0.50;0.50;;;1.50;99.90;;;;;;5247511;28;20077;-77
2021/12/10 01:06:42;;;;;;;0.65;0.65;;;1.50;99.90;;;;;;5261189;28;20150;-77
2021/12/10 01:09:37;;;;;;;0.50;0.50;;;1.40;99.90;;;;;;5263320;28;20034;-77
2021/12/10 01:12:26;;;;;;;0.98;0.98;;;1.30;99.90;;;;;;5263970;28;20333;-78
2021/12/10 01:23:55;;;;;;;0.40;0.40;;;1.10;99.90;;;;;;5265617;28;20087;-77
2021/12/10 01:26:51;;;;;;;0.40;0.40;;;1.30;99.90;;;;;;5263174;28;20055;-77
2021/12/10 01:29:38;;;;;;;0.30;0.30;;;1.40;99.90;;;;;;5264786;28;20197;-79
2021/12/10 01:32:16;;;;;;;0.50;0.50;;;1.40;99.90;;;;;;5264476;28;20461;-79
2021/12/10 01:34:49;;;;;;;0.63;0.63;;;1.50;99.90;;;;;;5263012;28;20030;-80
2021/12/10 01:37:24;;;;;;;0.40;0.40;;;1.50;99.90;;;;;;5259564;28;20240;-78
2021/12/10 01:40:02;;;;;;;0.50;0.50;;;1.50;99.90;;;;;;5243655;28;20331;-77
2021/12/10 01:42:45;;;;;;;2.35;2.25;;;1.50;99.90;;;;;;5262744;28;20024;-78
2021/12/10 01:45:31;;;;;;;0.50;0.50;;;1.60;99.90;;;;;;5261539;28;20032;-80
2021/12/10 01:48:10;;;;;;;0.50;0.50;;;1.60;99.90;;;;;;5257690;28;20024;-79
2021/12/10 01:50:46;;;;;;;0.63;0.63;;;1.60;99.90;;;;;;5262118;28;20221;-79
2021/12/10 01:53:22;;;;;;;0.52;0.52;;;1.60;99.90;;;;;;5262182;28;20038;-79
2021/12/10 01:56:02;;;;;;;0.50;0.50;;;1.70;99.90;;;;;;5263057;28;20027;-78
2021/12/10 01:58:33;;;;;;;0.40;0.40;;;1.60;99.90;;;;;;5255357;28;20032;-80
2021/12/10 02:01:17;;;;;;;0.40;0.40;;;1.60;99.90;;;;;;5240934;28;20077;-79
2021/12/10 02:03:49;;;;;;;0.60;0.60;;;1.40;99.90;;;;;;5241351;28;20183;-78
2021/12/10 02:06:21;;;;;;;0.30;0.30;;;1.30;99.90;;;;;;5242657;28;20511;-80
2021/12/10 02:08:52;;;;;;;0.70;0.70;;;1.30;99.90;;;;;;5243485;28;20025;-78
2021/12/10 02:11:23;;;;;;;0.50;0.50;;;1.30;99.90;;;;;;5242474;28;20117;-77
2021/12/10 02:13:54;;;;;;;0.60;0.60;;;1.20;99.90;;;;;;5250369;28;20245;-77
2021/12/10 02:16:28;;;;;;;0.40;0.40;;;1.40;99.90;;;;;;5261319;28;20071;-79
2021/12/10 02:18:59;;;;;;;0.40;0.40;;;1.40;99.90;;;;;;5246719;28;20229;-77
2021/12/10 02:21:33;;;;;;;0.40;0.40;;;1.30;99.90;;;;;;5241532;28;20218;-77
2021/12/10 02:24:05;;;;;;;0.47;0.47;;;1.20;99.90;;;;;;5242037;28;20025;-77
2021/12/10 02:26:52;;;;;;;0.60;0.60;;;1.20;99.90;;;;;;5261496;28;20034;-78
2021/12/10 02:29:29;;;;;;;0.47;0.47;;;1.10;99.90;;;;;;5288471;28;20103;-78
2021/12/10 02:32:10;;;;;;;0.77;0.77;;;1.10;99.90;;;;;;5271960;28;20346;-80
2021/12/10 02:34:43;;;;;;;0.50;0.50;;;1.10;99.90;;;;;;5250634;28;20055;-78
2021/12/10 02:37:14;;;;;;;0.68;0.68;;;1.30;99.90;;;;;;5266617;28;20040;-78
2021/12/10 02:39:44;;;;;;;0.40;0.40;;;1.30;99.90;;;;;;5266566;28;20105;-76
2021/12/10 02:42:17;;;;;;;0.40;0.40;;;1.40;99.90;;;;;;5265408;28;20048;-76
2021/12/10 02:44:53;;;;;;;0.43;0.43;;;1.40;99.90;;;;;;5265021;28;20462;-78
2021/12/10 02:47:24;;;;;;;0.40;0.40;;;1.30;99.90;;;;;;5266694;28;20028;-78
2021/12/10 02:49:57;;;;;;;1.13;1.13;;;1.40;99.90;;;;;;5265668;28;20114;-78
2021/12/10 02:52:33;;;;;;;0.60;0.60;;;1.40;99.90;;;;;;5256600;28;20028;-78
2021/12/10 02:55:10;;;;;;;0.60;0.60;;;1.40;99.90;;;;;;5246028;28;20025;-79
2021/12/10 02:57:53;;;;;;;0.47;0.47;;;1.40;99.90;;;;;;5245190;28;20081;-78
2021/12/10 03:00:37;;;;;;;1.42;1.33;;;1.30;99.90;;;;;;5245496;28;20028;-77
2021/12/10 03:03:08;;;;;;;0.60;0.60;;;1.30;99.90;;;;;;5260890;28;20226;-79
2021/12/10 03:05:41;;;;;;;0.50;0.50;;;1.30;99.90;;;;;;5247080;28;20039;-79
2021/12/10 03:08:17;;;;;;;0.90;0.90;;;1.30;99.90;;;;;;5244935;28;20028;-77
2021/12/10 03:10:48;;;;;;;0.60;0.60;;;1.20;99.90;;;;;;5245613;28;20115;-78
2021/12/10 03:13:19;;;;;;;0.60;0.60;;;1.30;99.90;;;;;;5259348;28;20032;-79
2021/12/10 03:15:54;;;;;;;0.30;0.30;;;1.20;99.90;;;;;;5253889;28;20352;-78
2021/12/10 03:18:30;;;;;;;0.50;0.50;;;1.30;99.90;;;;;;5265594;28;20051;-78
2021/12/10 03:21:10;;;;;;;0.60;0.60;;;1.20;99.90;;;;;;5257895;28;20164;-78
2021/12/10 03:23:48;;;;;;;0.50;0.50;;;1.20;99.90;;;;;;5259215;28;20074;-78
2021/12/10 03:26:21;;;;;;;0.70;0.70;;;1.20;99.90;;;;;;5265715;28;20024;-76
2021/12/10 03:28:55;;;;;;;0.40;0.40;;;1.20;99.90;;;;;;5285681;28;20059;-79
2021/12/10 03:31:29;;;;;;;0.68;0.68;;;1.10;99.90;;;;;;5265203;28;20319;-77
2021/12/10 03:34:04;;;;;;;0.50;0.50;;;1.20;99.90;;;;;;5244261;28;20043;-79
2021/12/10 03:36:45;;;;;;;1.08;1.08;;;1.20;99.90;;;;;;5228294;28;20108;-76
2021/12/10 03:39:20;;;;;;;0.50;0.50;;;1.10;99.90;;;;;;5243197;28;20103;-78
2021/12/10 03:41:54;;;;;;;0.40;0.40;;;1.20;99.90;;;;;;5253929;28;20232;-78
2021/12/10 03:44:27;;;;;;;0.50;0.50;;;1.20;99.90;;;;;;5264046;28;20040;-77
2021/12/10 03:47:04;;;;;;;0.60;0.60;;;1.30;99.90;;;;;;5265489;28;20047;-79
2021/12/10 03:49:38;;;;;;;0.40;0.40;;;1.20;99.90;;;;;;5266921;28;20036;-78
2021/12/10 03:52:12;;;;;;;0.43;0.43;;;1.20;99.90;;;;;;5264606;28;20182;-77
2021/12/10 03:54:43;;;;;;;0.50;0.50;;;1.20;99.90;;;;;;5265870;28;20280;-77
2021/12/10 03:57:15;;;;;;;0.50;0.50;;;1.10;99.90;;;;;;5264968;28;20071;-78
2021/12/10 03:59:46;;;;;;;0.50;0.50;;;1.00;99.90;;;;;;5264119;28;20036;-76
2021/12/10 04:02:20;;;;;;;0.60;0.60;;;1.00;99.90;;;;;;5265944;28;20362;-77
2021/12/10 04:04:51;;;;;;;0.50;0.50;;;1.00;99.90;;;;;;5246772;28;20360;-77
2021/12/10 04:07:28;;;;;;;0.60;0.60;;;0.90;99.90;;;;;;5243094;28;20072;-77
2021/12/10 04:09:58;;;;;;;0.35;0.35;;;0.80;99.90;;;;;;5261700;28;20044;-77
2021/12/10 04:12:31;;;;;;;0.40;0.40;;;0.80;99.90;;;;;;5264270;28;20031;-77
2021/12/10 04:15:07;;;;;;;0.55;0.55;;;0.80;99.90;;;;;;5264213;28;20274;-77
2021/12/10 04:17:40;;;;;;;0.47;0.47;;;0.80;99.90;;;;;;5265217;28;20225;-78
2021/12/10 04:20:12;;;;;;;0.63;0.63;;;0.90;99.90;;;;;;5264227;28;20044;-78
2021/12/10 04:22:46;;;;;;;0.50;0.50;;;0.80;99.90;;;;;;5264824;28;20139;-77
2021/12/10 04:25:24;;;;;;;0.47;0.47;;;0.70;99.90;;;;;;5264792;28;20063;-76
2021/12/10 04:27:59;;;;;;;1.17;1.10;;;0.60;99.90;;;;;;5249921;28;20038;-77
2021/12/10 04:30:37;;;;;;;0.40;0.40;;;0.50;99.90;;;;;;5262555;28;20031;-78
2021/12/10 04:33:16;;;;;;;0.40;0.40;;;0.40;99.90;;;;;;5263271;28;20149;-77
2021/12/10 04:35:50;;;;;;;0.50;0.50;;;0.30;99.90;;;;;;5264427;28;20027;-78
2021/12/10 04:38:23;;;;;;;1.38;1.38;;;0.20;99.90;;;;;;5262439;28;20104;-77
2021/12/10 04:41:00;;;;;;;0.60;0.60;;;0.20;99.90;;;;;;5242019;28;20250;-76
2021/12/10 04:43:34;;;;;;;0.40;0.40;;;0.10;99.90;;;;;;5262760;28;20104;-78
2021/12/10 04:46:05;;;;;;;0.60;0.60;;;0.00;99.90;;;;;;5248140;28;20196;-76
2021/12/10 04:48:58;;;;;;;0.60;0.60;;;-0.20;99.90;;;;;;5261680;28;20067;-77
2021/12/10 04:51:34;;;;;;;0.40;0.40;;;-0.20;99.90;;;;;;5263947;28;20065;-76
2021/12/10 04:54:07;;;;;;;0.50;0.50;;;-0.30;99.90;;;;;;5263661;28;20036;-76
2021/12/10 04:56:43;;;;;;;0.50;0.50;;;-0.40;99.90;;;;;;5262975;28;20083;-77
2021/12/10 04:59:19;;;;;;;0.50;0.50;;;-0.60;99.90;;;;;;5263027;28;20268;-78
2021/12/10 05:01:56;;;;;;;0.50;0.50;;;-0.60;99.90;;;;;;5259079;28;20051;-78
2021/12/10 05:04:29;;;;;;;0.40;0.40;;;-0.70;99.90;;;;;;5243054;28;20233;-77
2021/12/10 05:07:05;;;;;;;0.60;0.60;;;-0.70;99.90;;;;;;5259162;28;20067;-77
2021/12/10 05:09:39;;;;;;;0.60;0.60;;;-0.60;99.90;;;;;;5261590;28;20060;-77
2021/12/10 05:12:12;;;;;;;1.05;0.95;;;-0.70;99.90;;;;;;5243148;28;20025;-78
2021/12/10 05:14:46;;;;;;;0.68;0.68;;;-0.80;99.90;;;;;;5265615;28;20069;-77
2021/12/10 05:17:26;;;;;;;0.80;0.80;;;-0.80;99.90;;;;;;5279263;28;20100;-78
2021/12/10 05:19:59;;;;;;;0.50;0.50;;;-0.80;99.90;;;;;;5271676;28;20065;-78
2021/12/10 05:22:30;;;;;;;1.88;1.77;;;-0.70;99.90;;;;;;5242869;28;20075;-77
2021/12/10 05:25:01;;;;;;;0.40;0.40;;;-0.80;99.90;;;;;;5265778;28;20885;-77
2021/12/10 05:27:33;;;;;;;0.60;0.60;;;-0.70;99.90;;;;;;5261202;28;20098;-79
2021/12/10 05:30:07;;;;;;;0.50;0.50;;;-0.60;99.90;;;;;;5244589;28;20032;-77
2021/12/10 05:32:38;;;;;;;;;;;-0.60;99.90;;;;;;5243003;28;20032;-75
2021/12/10 05:35:09;;;;;;;0.40;0.40;;;-0.60;99.90;;;;;;5254267;28;19908;-76
2021/12/10 05:37:41;;;;;;;0.70;0.70;;;-0.60;99.90;;;;;;5257028;28;20136;-78
2021/12/10 05:40:15;;;;;;;0.40;0.40;;;-0.60;99.90;;;;;;5262245;28;20040;-75
2021/12/10 05:42:49;;;;;;;0.43;0.43;;;-0.70;99.90;;;;;;5263280;28;20099;-76
2021/12/10 05:45:22;;;;;;;0.50;0.50;;;-0.70;99.90;;;;;;5262990;28;20103;-78
2021/12/10 05:47:55;;;;;;;0.40;0.40;;;-0.70;99.90;;;;;;5254541;28;20059;-77
2021/12/10 05:50:29;;;;;;;0.60;0.60;;;-0.70;99.90;;;;;;5242475;28;20035;-76
2021/12/10 05:53:02;;;;;;;1.17;1.17;;;-0.70;99.90;;;;;;5242215;28;20048;-75
2021/12/10 05:55:37;;;;;;;0.50;0.50;;;-0.60;99.90;;;;;;5248486;28;20133;-76
2021/12/10 05:58:12;;;;;;;0.40;0.40;;;-0.60;99.90;;;;;;5257191;28;20035;-77
2021/12/10 06:00:48;;;;;;;0.50;0.50;;;-0.50;99.90;;;;;;5253179;28;20032;-78
2021/12/10 06:03:20;;;;;;;0.40;0.40;;;-0.40;99.90;;;;;;5251788;28;20032;-76
2021/12/10 06:05:51;;;;;;;0.40;0.40;;;-0.30;99.90;;;;;;5261290;28;20221;-78
2021/12/10 06:08:24;;;;;;;3.80;3.45;;;-0.40;99.90;;;;;;5266759;28;20534;-77
2021/12/10 06:10:58;;;;;;;0.47;0.47;;;-0.40;99.90;;;;;;5267780;28;20557;-77
2021/12/10 06:13:33;;;;;;;0.70;0.70;;;-0.30;99.90;;;;;;5254565;28;20028;-77
2021/12/10 06:16:04;;;;;;;0.50;0.50;;;-0.30;99.90;;;;;;5263348;28;20370;-76
2021/12/10 06:18:38;;;;;;;0.50;0.50;;;-0.20;99.90;;;;;;5260483;28;20217;-76
2021/12/10 06:21:14;;;;;;;0.40;0.40;;;-0.10;99.90;;;;;;5257619;28;20083;-77
2021/12/10 06:23:45;;;;;;;0.68;0.68;;;-0.20;99.90;;;;;;5264922;28;20040;-76
2021/12/10 06:26:17;;;;;;;0.40;0.40;;;-0.20;99.90;;;;;;5266825;28;20028;-76
2021/12/10 06:28:49;;;;;;;0.93;0.93;;;-0.20;99.90;;;;;;5263365;28;20072;-77
2021/12/10 06:31:31;;;;;;;0.40;0.40;;;-0.30;99.90;;;;;;5267815;28;20032;-76
2021/12/10 06:34:04;;;;;;;0.40;0.40;;;-0.40;99.90;;;;;;5263467;28;20043;-75
2021/12/10 06:36:35;;;;;;;0.40;0.40;;;-0.50;99.90;;;;;;5250418;28;20020;-77
2021/12/10 06:39:19;;;;;;;0.50;0.50;;;-0.50;99.90;;;;;;5269649;28;20024;-76
2021/12/10 06:41:53;;;;;;;0.63;0.63;;;-0.70;99.90;;;;;;5284528;28;20259;-77
2021/12/10 06:44:24;;;;;;;0.52;0.52;;;-0.70;99.90;;;;;;5275808;28;20027;-78
2021/12/10 06:46:55;;;;;;;0.43;0.43;;;-0.80;99.90;;;;;;5284132;28;20047;-75
2021/12/10 06:49:26;;;;;;;0.40;0.40;;;-0.80;99.90;;;;;;5283047;28;20221;-77
2021/12/10 06:52:02;;;;;;;0.40;0.40;;;-0.70;99.90;;;;;;5278194;28;20048;-76
2021/12/10 06:54:33;;;;;;;0.40;0.40;;;-0.60;99.90;;;;;;5284997;28;20054;-76
2021/12/10 06:57:04;;;;;;;0.60;0.60;;;-0.70;99.90;;;;;;5272182;28;20035;-76
2021/12/10 06:59:38;;;;;;;0.45;0.45;;;-0.70;99.90;;;;;;5282374;28;20035;-76
2021/12/10 07:02:11;;;;;;;0.63;0.63;;;-0.80;99.90;;;;;;5267188;28;20027;-76
2021/12/10 07:04:42;;;;;;;0.40;0.40;;;-0.70;99.90;;;;;;5272233;28;20032;-77
2021/12/10 07:07:14;;;;;;;0.50;0.50;;;-0.70;99.90;;;;;;5279934;28;20024;-78
2021/12/10 07:09:44;;;;;;;0.43;0.43;;;-0.70;99.90;;;;;;5279927;28;20032;-78
2021/12/10 07:12:18;;;;;;;0.50;0.50;;;-0.50;99.90;;;;;;5285563;28;20218;-76
2021/12/10 07:14:49;;;;;;;0.73;0.73;;;-0.50;99.90;;;;;;5261726;28;20039;-76
2021/12/10 07:17:21;;;;;;;0.40;0.40;;;-0.50;99.90;;;;;;5260909;28;20113;-77
2021/12/10 07:19:53;;;;;;;0.30;0.30;;;-0.40;99.90;;;;;;5261359;28;20103;-76
2021/12/10 07:22:24;;;;;;;1.13;1.13;;;-0.50;99.90;;;;;;5269958;28;20310;-77
2021/12/10 07:24:55;;;;;;;0.30;0.30;;;-0.40;99.90;;;;;;5275982;28;20050;-77
2021/12/10 07:27:26;;;;;;;0.50;0.50;;;-0.40;99.90;;;;;;5276226;28;20332;-76
2021/12/10 07:30:02;;;;;;;0.70;0.70;;;-0.20;99.90;;;;;;5260799;28;20282;-76
2021/12/10 07:32:36;;;;;;;0.60;0.60;;;-0.30;99.90;;;;;;5255990;28;20103;-78
2021/12/10 07:35:08;;;;;;;;;;;-0.10;99.90;;;;;;5264152;28;20051;-76
2021/12/10 07:37:39;;;;;;;0.50;0.50;;;-0.10;99.90;;;;;;5264636;28;19954;-76
2021/12/10 07:40:15;;;;;;;0.77;0.77;;;-0.10;99.90;;;;;;5283948;27;20232;-77
2021/12/10 07:42:47;;;;;;;1.88;1.77;;;-0.10;99.90;;;;;;5289726;27;20035;-76
2021/12/10 07:45:20;;;;;;;1.25;1.25;;;-0.10;99.90;;;;;;5304834;27;20523;-76
2021/12/10 07:47:55;;;;;;;1.00;1.00;;;-0.20;99.90;;;;;;5295042;27;20270;-77
2021/12/10 07:50:32;;;;;;;0.53;0.53;;;-0.20;99.90;;;;;;5307476;27;20031;-76
2021/12/10 07:53:07;;;;;;;0.75;0.75;;;-0.10;99.90;;;;;;5302661;27;20038;-76
2021/12/10 07:55:40;;;;;;;0.60;0.60;;;0.10;99.90;;;;;;5281405;27;20099;-77
2021/12/10 07:58:14;;;;;;;0.80;0.80;;;0.10;99.90;;;;;;5293693;27;20040;-76
2021/12/10 08:00:49;;;;;;;0.40;0.40;;;0.20;99.90;;;;;;5307283;27;20043;-78
2021/12/10 08:03:23;;;;;;;0.80;0.80;;;0.40;99.90;;;;;;5308452;27;20089;-75
2021/12/10 08:05:57;;;;;;;0.50;0.50;;;0.20;99.90;;;;;;5322693;27;20030;-79
2021/12/10 08:08:28;;;;;;;1.65;1.55;;;0.20;99.90;;;;;;5311232;27;20023;-75
2021/12/10 08:10:59;;;;;;;1.33;1.00;;;0.50;99.90;;;;;;5309853;27;20204;-76
2021/12/10 08:13:33;;;;;;;0.70;0.70;;;0.70;99.90;;;;;;5328546;27;20082;-76
2021/12/10 08:16:07;;;;;;;1.15;1.15;;;0.90;99.90;;;;;;5291997;27;20033;-75
2021/12/10 08:18:38;;;;;;;0.50;0.50;;;1.00;99.90;;;;;;5285770;28;20039;-76
2021/12/10 08:21:09;;;;;;;1.13;1.08;;;1.10;99.90;;;;;;5293914;27;20085;-75
2021/12/10 08:23:40;;;;;;;0.80;0.80;;;0.90;99.90;;;;;;5293565;27;20033;-75
2021/12/10 08:26:12;;;;;;;0.70;0.70;;;1.10;99.90;;;;;;5309667;27;20057;-75
2021/12/10 08:28:47;;;;;;;0.65;0.65;;;1.10;99.90;;;;;;5304735;27;20031;-78
2021/12/10 08:31:19;;;;;;;0.50;0.50;;;1.20;99.90;;;;;;5288637;27;20042;-75
2021/12/10 08:33:50;;;;;;;0.77;0.77;;;1.30;99.90;;;;;;5287359;27;20023;-77
2021/12/10 08:36:24;;;;;;;1.35;1.35;;;1.40;99.90;;;;;;5312668;27;20046;-77
2021/12/10 08:38:58;;;;;;;0.50;0.50;;;1.50;99.90;;;;;;5292698;27;20033;-78
2021/12/10 08:41:34;;;;;;;0.47;0.47;;;1.60;99.90;;;;;;5295588;27;20031;-76
2021/12/10 08:44:08;;;;;;;0.55;0.55;;;1.30;99.90;;;;;;5266566;28;20197;-77
2021/12/10 08:46:46;;;;;;;0.52;0.52;;;1.30;99.90;;;;;;5278011;27;20547;-77
2021/12/10 08:49:18;;;;;;;1.25;1.23;;;1.50;99.90;;;;;;5274200;27;20258;-75
2021/12/10 08:51:53;;;;;;;0.73;0.73;;;1.80;99.90;;;;;;5289856;27;20042;-77
2021/12/10 08:54:32;;;;;;;1.58;1.48;;;2.00;99.90;;;;;;5300543;27;20316;-76
2021/12/10 08:57:10;;;;;;;0.80;0.80;;;2.00;99.90;;;;;;5280188;27;20019;-78
2021/12/10 08:59:42;;;;;;;0.60;0.60;;;2.20;99.90;;;;;;5274456;27;20043;-76
2021/12/10 09:02:16;;;;;;;0.60;0.60;;;2.30;99.90;;;;;;5292920;27;20077;-76
2021/12/10 09:04:47;;;;;;;;;;;1.90;99.90;;;;;;5284645;27;20035;-76
2021/12/10 09:07:22;;;;;;;0.47;0.47;;;1.70;99.90;;;;;;5281859;28;19926;-76
2021/12/10 09:09:53;;;;;;;1.70;1.60;;;1.60;99.90;;;;;;5265868;28;20275;-77
2021/12/10 09:12:27;;;;;;;0.98;0.98;;;1.80;99.90;;;;;;5281510;27;20035;-76
2021/12/10 09:15:00;;;;;;;0.50;0.50;;;2.00;99.90;;;;;;5304174;27;20137;-76
2021/12/10 09:17:40;;;;;;;0.50;0.50;;;2.00;99.90;;;;;;5287609;27;20447;-76
2021/12/10 09:20:22;;;;;;;0.40;0.40;;;2.30;99.90;;;;;;5289218;27;20102;-75
2021/12/10 09:22:53;;;;;;;0.52;0.52;;;2.40;99.90;;;;;;5303590;27;20034;-76
2021/12/10 09:25:25;;;;;;;0.85;0.85;;;2.40;99.90;;;;;;5294492;27;20107;-75
2021/12/10 09:27:56;;;;;;;0.70;0.70;;;2.60;99.90;;;;;;5282228;28;20324;-77
2021/12/10 09:30:31;;;;;;;0.50;0.50;;;2.60;99.90;;;;;;5283528;28;20027;-77
2021/12/10 09:33:03;;;;;;;0.43;0.43;;;2.60;99.90;;;;;;5282716;28;20051;-76
2021/12/10 09:35:35;;;;;;;0.50;0.50;;;2.50;99.90;;;;;;5280348;28;20072;-76
2021/12/10 09:38:07;;;;;;;0.70;0.70;;;2.20;99.90;;;;;;5281481;28;20035;-75
2021/12/10 09:40:47;;;;;;;0.50;0.50;;;2.30;99.90;;;;;;5255306;28;20101;-76
2021/12/10 09:43:21;;;;;;;0.70;0.70;;;2.40;99.90;;;;;;5252931;28;20084;-77
2021/12/10 09:45:53;;;;;;;0.60;0.60;;;2.40;99.90;;;;;;5262915;28;20073;-76
2021/12/10 09:48:25;;;;;;;0.90;0.90;;;2.30;99.90;;;;;;5261775;28;20055;-76
2021/12/10 09:51:09;;;;;;;0.45;0.45;;;2.20;99.90;;;;;;5262337;28;20042;-77
2021/12/10 09:53:45;;;;;;;0.75;0.75;;;2.30;99.90;;;;;;5263293;28;20047;-78
2021/12/10 09:56:19;;;;;;;0.50;0.50;;;2.50;99.90;;;;;;5260467;28;20160;-76
2021/12/10 09:58:53;;;;;;;1.13;1.13;;;2.30;99.90;;;;;;5261365;28;20024;-78
2021/12/10 10:01:30;;;;;;;2.03;1.92;;;2.50;99.90;;;;;;5260328;28;20028;-76
2021/12/10 10:04:02;;;;;;;0.50;0.50;;;2.80;99.90;;;;;;5262075;28;20038;-77
2021/12/10 10:06:53;;;;;;;0.90;0.90;;;3.40;99.90;;;;;;5260625;28;20081;-76
2021/12/10 10:09:25;;;;;;;0.60;0.60;;;3.40;99.90;;;;;;5240416;28;20048;-76
2021/12/10 10:12:08;;;;;;;1.38;1.38;;;3.50;99.90;;;;;;5243448;28;20038;-77
2021/12/10 10:14:40;;;;;;;0.35;0.35;;;3.10;99.90;;;;;;5261336;28;20069;-75
2021/12/10 10:17:12;;;;;;;0.50;0.50;;;3.70;99.90;;;;;;5261234;28;20047;-78
2021/12/10 10:19:50;;;;;;;0.50;0.50;;;3.30;99.90;;;;;;5259707;28;20035;-76
2021/12/10 10:22:29;;;;;;;2.15;2.05;;;3.30;99.90;;;;;;5237971;28;20090;-76
2021/12/10 10:25:00;;;;;;;0.82;0.82;;;3.50;99.90;;;;;;5231674;28;20039;-78
2021/12/10 10:27:35;;;;;;;0.77;0.77;;;3.90;99.90;;;;;;5262761;28;20077;-76
2021/12/10 10:30:11;;;;;;;0.50;0.50;;;4.50;99.90;;;;;;5242743;28;20347;-76
2021/12/10 10:32:45;;;;;;;0.60;0.60;;;5.30;99.90;;;;;;5255921;28;20035;-78
2021/12/10 10:35:27;;;;;;;0.60;0.60;;;5.80;99.90;;;;;;5243768;28;20133;-79
2021/12/10 10:38:04;;;;;;;1.27;1.25;;;5.20;99.90;;;;;;5240410;28;20042;-77
2021/12/10 10:40:41;;;;;;;1.73;1.63;;;5.10;99.90;;;;;;5252418;28;20030;-77
2021/12/10 10:43:12;;;;;;;0.70;0.70;;;4.90;99.90;;;;;;5240523;28;20035;-77
2021/12/10 10:45:48;;;;;;;0.60;0.60;;;5.70;99.90;;;;;;5245637;28;20052;-77
2021/12/10 10:48:20;;;;;;;0.60;0.60;;;5.70;99.90;;;;;;5244011;28;20106;-78
2021/12/10 10:51:01;;;;;;;0.60;0.60;;;5.90;99.90;;;;;;5249162;28;20036;-78
2021/12/10 10:53:48;;;;;;;1.02;1.02;;;5.00;99.90;;;;;;5255314;28;20028;-77
2021/12/10 10:56:33;;;;;;;1.45;1.35;;;5.60;99.90;;;;;;5261536;28;20095;-78
2021/12/10 10:59:24;;;;;;;;;;;5.60;99.90;;;;;;5265905;28;20035;-76
2021/12/10 11:02:11;;;;;;;0.57;0.57;;;4.70;99.90;;;;;;5248983;28;19916;-77
2021/12/10 11:04:46;;;;;;;0.47;0.47;;;3.40;99.90;;;;;;5267397;28;20028;-77
2021/12/10 11:07:25;;;;;;;0.82;0.82;;;3.10;99.90;;;;;;5265636;28;20142;-77
2021/12/10 11:10:03;;;;;;;1.30;1.30;;;4.40;99.90;;;;;;5256693;28;20032;-76
2021/12/10 11:12:44;;;;;;;1.23;1.23;;;5.80;99.90;;;;;;5254158;28;20040;-76
2021/12/10 11:15:19;;;;;;;0.80;0.80;;;6.50;99.90;;;;;;5244003;28;20032;-76
2021/12/10 11:17:55;;;;;;;0.60;0.60;;;5.30;99.90;;;;;;5254683;28;20108;-76
2021/12/10 11:20:42;;;;;;;0.52;0.52;;;5.00;99.90;;;;;;5250457;28;20060;-77
2021/12/10 11:23:16;;;;;;;0.43;0.43;;;5.30;99.90;;;;;;5261366;28;20108;-76
2021/12/10 11:25:50;;;;;;;0.63;0.63;;;6.50;99.90;;;;;;5259518;28;20044;-77
2021/12/10 11:28:33;;;;;;;0.63;0.63;;;6.70;99.90;;;;;;5256918;28;20108;-78
2021/12/10 11:31:18;;;;;;;0.80;0.80;;;6.30;99.90;;;;;;5258827;28;20081;-77
2021/12/10 11:33:54;;;;;;;1.73;1.63;;;3.90;99.90;;;;;;5255888;28;20023;-77
2021/12/10 11:36:30;;;;;;;0.70;0.70;;;3.30;99.90;;;;;;5250839;28;20040;-77
2021/12/10 11:39:01;;;;;;;0.60;0.60;;;2.90;99.90;;;;;;5221570;28;20036;-77
2021/12/10 11:41:38;;;;;;;1.38;1.38;;;3.40;99.90;;;;;;5242435;28;20119;-78
2021/12/10 11:47:25;;;;;;;0.68;0.68;;;3.30;99.90;;;;;;5243719;28;20058;-77
2021/12/10 11:49:53;;;;;;;1.08;1.08;;;2.60;99.90;;;;;;5243702;28;20028;-76
2021/12/10 11:52:28;;;;;;;0.70;0.70;;;1.80;99.90;;;;;;5262136;28;20073;-76
2021/12/10 11:55:08;;;;;;;0.50;0.50;;;1.90;99.90;;;;;;5265260;28;20022;-77
2021/12/10 11:57:43;;;;;;;0.85;0.85;;;1.70;99.90;;;;;;5264477;28;20107;-78
2021/12/10 12:00:23;;;;;;;0.60;0.60;;;1.70;99.90;;;;;;5265065;28;20050;-77
2021/12/10 12:02:58;;;;;;;1.35;1.35;;;1.60;99.90;;;;;;5243757;28;20020;-76
2021/12/10 12:05:38;;;;;;;2.15;2.05;;;1.30;99.90;;;;;;5244323;28;20036;-76
2021/12/10 12:08:16;;;;;;;0.82;0.82;;;1.20;99.90;;;;;;5235425;28;20048;-76
2021/12/10 12:10:54;;;;;;;1.75;1.05;;;1.10;99.90;;;;;;5264509;28;20024;-77
2021/12/10 12:13:36;;;;;;;0.68;0.68;;;1.00;99.90;;;;;;5263055;28;20091;-78
2021/12/10 12:16:18;;;;;;;1.15;1.15;;;1.10;99.90;;;;;;5248513;28;20032;-78
2021/12/10 12:19:10;;;;;;;0.50;0.50;;;1.30;99.90;;;;;;5252809;28;20017;-76
2021/12/10 12:21:55;;;;;;;1.65;1.23;;;1.40;99.90;;;;;;5239916;28;20037;-75
2021/12/10 12:27:20;;;;;;;0.60;0.60;;;1.30;99.90;;;;;;5254491;28;19935;-76
2021/12/10 12:29:56;;;;;;;1.38;1.38;;;1.30;99.90;;;;;;5251335;28;20043;-76
2021/12/10 12:32:32;;;;;;;1.90;1.80;;;1.30;99.90;;;;;;5260009;28;20066;-75
2021/12/10 12:35:25;;;;;;;0.55;0.55;;;1.50;99.90;;;;;;5265690;28;20150;-76
2021/12/10 12:38:14;;;;;;;1.17;1.17;;;1.60;99.90;;;;;;5241856;28;20045;-76
2021/12/10 12:41:06;;;;;;;0.50;0.50;;;1.80;99.90;;;;;;5245829;28;20037;-77
2021/12/10 12:43:43;;;;;;;0.77;0.77;;;2.00;99.90;;;;;;5259994;28;20036;-75
2021/12/10 12:46:15;;;;;;;1.58;1.58;;;2.00;99.90;;;;;;5256939;28;20066;-78
2021/12/10 12:49:05;;;;;;;0.50;0.50;;;2.30;99.90;;;;;;5262727;28;20043;-79
2021/12/10 12:51:35;;;;;;;0.80;0.80;;;2.10;99.90;;;;;;5260579;28;20067;-77
2021/12/10 12:54:13;;;;;;;0.50;0.50;;;2.20;99.90;;;;;;5263353;28;20020;-76
2021/12/10 12:56:51;;;;;;;0.70;0.70;;;2.00;99.90;;;;;;5254308;28;20026;-76
2021/12/10 12:59:22;;;;;;;0.68;0.68;;;1.80;99.90;;;;;;5245575;28;20043;-75
2021/12/10 13:02:01;;;;;;;0.57;0.57;;;1.60;99.90;;;;;;5259031;28;20031;-75
2021/12/10 13:04:40;;;;;;;1.13;1.13;;;1.50;99.90;;;;;;5263016;28;20343;-76
2021/12/10 13:07:23;;;;;;;2.30;2.17;;;1.60;99.90;;;;;;5261016;28;20161;-75
2021/12/10 13:09:57;;;;;;;0.65;0.65;;;1.40;99.90;;;;;;5263304;28;20085;-75
2021/12/10 13:13:09;;;;;;;1.77;1.75;;;1.90;99.90;;;;;;5261719;28;20038;-77
2021/12/10 13:15:50;;;;;;;0.95;0.95;;;1.70;99.90;;;;;;5262043;28;20631;-76
2021/12/10 13:18:22;;;;;;;1.00;1.00;;;1.60;99.90;;;;;;5252914;28;20036;-76
2021/12/10 13:20:55;;;;;;;0.60;0.60;;;1.70;99.90;;;;;;5264601;28;20569;-76
2021/12/10 13:23:27;;;;;;;0.87;0.87;;;1.70;99.90;;;;;;5259867;28;20035;-75
2021/12/10 13:26:01;;;;;;;1.25;1.25;;;1.90;99.90;;;;;;5224988;28;20271;-76
2021/12/10 13:28:36;;;;;;;1.10;1.10;;;2.00;99.90;;;;;;5225400;28;20387;-76
2021/12/10 13:31:15;;;;;;;0.82;0.82;;;1.70;99.90;;;;;;5237973;28;20055;-76
2021/12/10 13:33:47;;;;;;;1.95;1.85;;;2.10;99.90;;;;;;5249449;28;20131;-77
2021/12/10 13:36:18;;;;;;;0.47;0.47;;;2.30;99.90;;;;;;5253072;28;20034;-76
2021/12/10 13:38:52;;;;;;;0.50;0.50;;;2.10;99.90;;;;;;5263740;28;20069;-76
2021/12/10 13:41:32;;;;;;;0.55;0.55;;;1.80;99.90;;;;;;5244244;28;20048;-76
2021/12/10 13:44:32;;;;;;;0.47;0.47;;;1.20;99.90;;;;;;5252077;28;20044;-76
2021/12/10 13:47:12;;;;;;;0.55;0.55;;;0.80;99.90;;;;;;5254689;28;20039;-75
2021/12/10 13:49:57;;;;;;;0.60;0.60;;;0.90;99.90;;;;;;5261261;28;20107;-75
2021/12/10 13:52:46;;;;;;;0.50;0.50;;;0.70;99.90;;;;;;5249682;28;20260;-76
2021/12/10 13:55:41;;;;;;;0.98;0.98;;;0.60;99.90;;;;;;5257649;28;20042;-75